Tadoule Lake Airport
CYBQ : rendu visible

Aérodrome :











RETROUVEZ-NOUS SUR...

 
LOGIN :

S'inscrire | Disclaimer

   EN    FR    IT 

 









Légende :    VFR   VFR Marginal   IFR   IFR Intensif   IFR Très Intensif
Visi : 
Plafond : 
>= 8 km
>= 3000ft
5 à 8 km
1000 à 3000 ft
1500m à 5 km
500 à 1000 ft
800 à 1500m
200 à 500 ft
< 800m
< 200 ft
Symboles :   Orages  Brouillard  Fortes neiges  Fortes précipitations  Vent > 20 kt






- Altitude de l'aérodrome : 923 ft
- Code IATA : XTL


CYBQ - Tadoule Lake

DERNIER METAR :
  • 231120Z AUTO 07008KT 8SM -SN OVC024 M18/M21 A2967 RMK SLP083

METARs EXPIRÉS :
  • 231116Z AUTO 06007KT 6SM -SN OVC026 M18/M20 A2967 RMK SLP082
  • 231102Z AUTO 08008KT 5SM -SN OVC026 M18/M20 A2967 RMK SLP080
  • 231044Z AUTO 08009KT 6SM -SN OVC026 M18/M20 A2966 RMK SLP078
  • 231014Z AUTO 09010KT 3SM -SN OVC026 M18/M20 A2965 RMK SLP074
  • 231000Z AUTO 08009KT 3SM -SN OVC024 M18/M20 A2965 RMK SLP075
  • 230925Z AUTO 09009KT 5SM -SN OVC026 M18/M20 A2964 RMK SLP071
  • 230900Z AUTO 09010KT 9SM -SN FEW020 OVC026 M18/M20 A2964 RMK SLP072
  • 230847Z AUTO 09007KT 7SM -SN BKN018 OVC026 M18/M20 A2965 RMK SLP073
  • 230827Z AUTO 08007KT 2 1/4SM -SN OVC018 M18/M20 A2964 RMK SLP071

TAF N/A



MET'MAP, la Météo Aéronautique d'un coup d'oeil ! - Copyright ORBIFLY Décembre 2007 - Disclaimer

ORBIFLY MET'MAP TEAM :

Programmation & Développement : Alexandra Zaïnal
Sur une idée originale de : Baudouin d'Aumeries
Assistance à la programmation : Marc-Olivier Méhu
Soutien technique & logistique : Manuel Goepfert

Contact : metmap@orbifly.com




SOURCES & CREDITS :

   NOAA       Earth
Advisory